createdAt,value
2022-10-23T00:01:44.103Z,101903.19
2022-10-23T00:04:17.844Z,101897.78
2022-10-23T00:06:45.164Z,101901.34
2022-10-23T00:09:13.639Z,101898.19
2022-10-23T00:11:41.397Z,101891.63
2022-10-23T00:14:08.465Z,101891.47
2022-10-23T00:16:35.286Z,101889.47
2022-10-23T00:19:02.050Z,101891.19
2022-10-23T00:21:28.880Z,101894.03
2022-10-23T00:23:55.450Z,101895.91
2022-10-23T00:26:22.008Z,101895.91
2022-10-23T00:28:50.857Z,101898.50
2022-10-23T00:31:18.295Z,101895.78
2022-10-23T00:33:46.028Z,101900.31
2022-10-23T00:36:14.280Z,101900.31
2022-10-23T00:38:40.819Z,101897.91
2022-10-23T00:41:09.353Z,101900.75
2022-10-23T00:43:58.556Z,101900.19
2022-10-23T00:46:25.238Z,101893.19
2022-10-23T00:48:51.816Z,101899.78
2022-10-23T00:51:18.651Z,101892.78
2022-10-23T00:53:47.992Z,101902.06
2022-10-23T00:56:16.691Z,101902.22
2022-10-23T00:58:43.230Z,101905.06
2022-10-23T01:01:18.681Z,101908.78
2022-10-23T01:03:45.375Z,101898.19
2022-10-23T01:06:13.869Z,101901.94
2022-10-23T01:08:40.267Z,101895.63
2022-10-23T01:11:12.629Z,101898.50
2022-10-23T01:13:51.283Z,101897.06
2022-10-23T01:16:35.876Z,101890.09
2022-10-23T01:19:08.564Z,101899.22
2022-10-23T01:21:45.378Z,101896.38
2022-10-23T01:24:27.470Z,101899.91
2022-10-23T01:27:12.649Z,101899.06
2022-10-23T01:29:49.827Z,101901.06
2022-10-23T01:32:36.528Z,101894.09
2022-10-23T01:35:13.603Z,101902.06
2022-10-23T01:38:01.279Z,101892.09
2022-10-23T01:40:51.035Z,101897.22
2022-10-23T01:43:20.775Z,101887.38
2022-10-23T01:45:54.154Z,101893.78
2022-10-23T01:48:27.081Z,101895.66
2022-10-23T01:50:56.048Z,101890.22
2022-10-23T01:53:23.085Z,101893.66
2022-10-23T01:55:49.910Z,101888.09
2022-10-23T01:58:16.585Z,101891.78
2022-10-23T02:00:45.215Z,101881.06
2022-10-23T02:03:12.864Z,101884.81
2022-10-23T02:05:39.463Z,101883.78
2022-10-23T02:08:06.554Z,101890.94
2022-10-23T02:10:42.421Z,101888.22
2022-10-23T02:13:12.965Z,101891.78
2022-10-23T02:15:54.182Z,101878.38
2022-10-23T02:18:29.583Z,101879.50
2022-10-23T02:20:59.504Z,101870.81
2022-10-23T02:23:33.317Z,101871.81
2022-10-23T02:26:11.447Z,101862.66
2022-10-23T02:28:47.307Z,101861.69
2022-10-23T02:31:16.839Z,101856.97
2022-10-23T02:33:44.886Z,101863.38
2022-10-23T02:36:12.097Z,101870.66
2022-10-23T02:38:41.499Z,101858.13
2022-10-23T02:41:35.987Z,101866.25
2022-10-23T02:44:12.005Z,101858.97
2022-10-23T02:46:38.455Z,101853.69
2022-10-23T02:49:11.864Z,101857.13
2022-10-23T02:51:38.449Z,101863.56
2022-10-23T02:54:15.515Z,101853.56
2022-10-23T02:56:52.448Z,101861.69
2022-10-23T02:59:37.521Z,101869.09
2022-10-23T03:02:15.440Z,101869.09
2022-10-23T03:04:43.021Z,101865.38
2022-10-23T03:07:15.468Z,101866.09
2022-10-23T03:09:41.937Z,101866.09
2022-10-23T03:12:08.428Z,101862.41
2022-10-23T03:14:34.901Z,101855.25
2022-10-23T03:17:01.341Z,101850.97
2022-10-23T03:19:27.850Z,101853.56
2022-10-23T03:21:54.739Z,101861.69
2022-10-23T03:24:21.249Z,101853.69
2022-10-23T03:26:47.736Z,101855.41
2022-10-23T03:29:14.235Z,101858.69
2022-10-23T03:31:40.727Z,101864.09
2022-10-23T03:34:11.126Z,101872.22
2022-10-23T03:36:37.879Z,101865.09
2022-10-23T03:39:04.577Z,101867.81
2022-10-23T03:41:31.473Z,101873.38
2022-10-23T03:43:58.021Z,101875.38
2022-10-23T03:46:24.585Z,101865.38
2022-10-23T03:48:51.081Z,101872.41
2022-10-23T03:51:17.535Z,101874.81
2022-10-23T03:53:44.076Z,101870.94
2022-10-23T03:56:10.501Z,101869.13
2022-10-23T03:58:36.976Z,101870.09
2022-10-23T04:01:03.564Z,101875.66
2022-10-23T04:03:30.083Z,101881.97
2022-10-23T04:05:56.672Z,101879.25
2022-10-23T04:08:23.347Z,101882.50
2022-10-23T04:10:49.811Z,101878.81
2022-10-23T04:13:16.328Z,101883.38
2022-10-23T04:15:49.390Z,101886.09
2022-10-23T04:18:16.172Z,101878.09
2022-10-23T04:20:42.647Z,101882.50
2022-10-23T04:23:09.133Z,101873.38
2022-10-23T04:25:35.723Z,101877.66
2022-10-23T04:28:02.201Z,101872.09
2022-10-23T04:30:28.663Z,101871.22
2022-10-23T04:32:55.121Z,101885.66
2022-10-23T04:35:21.657Z,101884.78
2022-10-23T04:37:48.416Z,101893.94
2022-10-23T04:40:15.096Z,101889.22
2022-10-23T04:42:41.896Z,101891.81
2022-10-23T04:45:08.931Z,101893.50
2022-10-23T04:47:35.466Z,101898.19
2022-10-23T04:50:01.957Z,101892.91
2022-10-23T04:52:28.602Z,101888.50
2022-10-23T04:54:55.139Z,101892.78
2022-10-23T04:57:21.599Z,101899.06
2022-10-23T04:59:48.071Z,101895.34
2022-10-23T05:02:14.566Z,101898.78
2022-10-23T05:04:41.050Z,101900.66
2022-10-23T05:07:07.538Z,101894.22
2022-10-23T05:09:34.106Z,101887.94
2022-10-23T05:12:00.554Z,101891.63
2022-10-23T05:14:27.067Z,101897.06
2022-10-23T05:17:25.756Z,101907.06
2022-10-23T05:19:54.778Z,101900.66
2022-10-23T05:22:24.623Z,101909.75
2022-10-23T05:24:51.169Z,101906.91
2022-10-23T05:27:17.861Z,101906.78
2022-10-23T05:29:44.375Z,101904.06
2022-10-23T05:32:13.847Z,101912.22
2022-10-23T05:34:40.940Z,101908.78
2022-10-23T05:37:09.651Z,101906.78
2022-10-23T05:39:36.312Z,101915.75
2022-10-23T05:42:02.811Z,101915.91
2022-10-23T05:44:29.285Z,101914.91
2022-10-23T05:46:55.817Z,101914.19
2022-10-23T05:49:25.026Z,101924.16
2022-10-23T05:51:51.685Z,101915.31
2022-10-23T05:54:18.170Z,101915.31
2022-10-23T05:56:44.657Z,101903.63
2022-10-23T05:59:11.111Z,101913.63
2022-10-23T06:01:37.770Z,101907.34
2022-10-23T06:04:05.448Z,101912.78
2022-10-23T06:06:31.943Z,101920.91
2022-10-23T06:08:58.748Z,101919.19
2022-10-23T06:11:25.305Z,101919.19
2022-10-23T06:13:51.898Z,101918.34
2022-10-23T06:16:20.594Z,101921.03
2022-10-23T06:18:47.492Z,101926.59
2022-10-23T06:21:14.643Z,101930.03
2022-10-23T06:23:42.486Z,101930.59
2022-10-23T06:26:11.248Z,101932.16
2022-10-23T06:28:38.082Z,101939.03
2022-10-23T06:31:05.926Z,101944.19
2022-10-23T06:33:32.545Z,101947.44
2022-10-23T06:35:59.030Z,101951.03
2022-10-23T06:38:25.684Z,101952.59
2022-10-23T06:40:53.614Z,101950.44
2022-10-23T06:43:20.196Z,101953.84
2022-10-23T06:45:46.827Z,101965.59
2022-10-23T06:48:13.533Z,101966.13
2022-10-23T06:50:40.111Z,101962.13
2022-10-23T06:53:06.892Z,101962.72
2022-10-23T06:55:34.273Z,101961.56
2022-10-23T06:58:00.785Z,101968.72
2022-10-23T07:00:27.337Z,101964.56
2022-10-23T07:02:54.416Z,101967.84
2022-10-23T07:05:20.986Z,101967.25
2022-10-23T07:07:47.468Z,101966.59
2022-10-23T07:12:47.840Z,101965.56
2022-10-23T07:15:15.452Z,101963.25
2022-10-23T07:17:41.986Z,101969.25
2022-10-23T07:20:09.056Z,101975.25
2022-10-23T07:22:35.534Z,101980.09
2022-10-23T07:25:01.997Z,101977.63
2022-10-23T07:27:28.538Z,101969.03
2022-10-23T07:29:55.016Z,101974.88
2022-10-23T07:32:23.865Z,101971.16
2022-10-23T07:34:50.382Z,101989.16
2022-10-23T07:37:16.945Z,101984.59
2022-10-23T07:39:43.414Z,101991.47
2022-10-23T07:42:10.300Z,101995.41
2022-10-23T07:44:36.745Z,101988.94
2022-10-23T07:47:03.270Z,101992.03
2022-10-23T07:49:29.763Z,102001.00
2022-10-23T07:51:58.765Z,101987.09
2022-10-23T07:54:25.302Z,101976.84
2022-10-23T07:56:51.823Z,101997.28
2022-10-23T07:59:18.340Z,101999.84
2022-10-23T08:01:47.145Z,101994.56
2022-10-23T08:04:14.265Z,101982.69
2022-10-23T08:06:40.716Z,101966.75
2022-10-23T08:09:07.330Z,101978.72
2022-10-23T08:11:35.768Z,101985.25
2022-10-23T08:14:04.660Z,101992.47
2022-10-23T08:16:31.989Z,101980.97
2022-10-23T08:18:58.527Z,101989.53
2022-10-23T08:21:25.021Z,101998.78
2022-10-23T08:23:59.924Z,101997.41
2022-10-23T08:26:29.364Z,102006.50
2022-10-23T08:28:56.521Z,101999.19
2022-10-23T08:31:23.096Z,102007.50
2022-10-23T08:36:21.934Z,102007.50
2022-10-23T08:38:49.170Z,102008.19
2022-10-23T08:41:24.944Z,101995.97
2022-10-23T08:43:57.009Z,101997.38
2022-10-23T08:46:28.734Z,101990.75
2022-10-23T08:49:44.788Z,101999.88
2022-10-23T08:52:34.651Z,101996.72
2022-10-23T08:55:16.405Z,102001.94
2022-10-23T08:58:11.251Z,102004.78
2022-10-23T09:00:37.930Z,101998.50
2022-10-23T09:03:05.219Z,102003.31
2022-10-23T09:05:50.000Z,101997.84
2022-10-23T09:08:43.757Z,102006.69
2022-10-23T09:11:33.059Z,102005.31
2022-10-23T09:14:02.984Z,102009.59
2022-10-23T09:16:35.514Z,102011.34
2022-10-23T09:19:02.302Z,102001.66
2022-10-23T09:21:29.626Z,102011.03
2022-10-23T09:23:56.749Z,102009.88
2022-10-23T09:26:23.386Z,102001.16
2022-10-23T09:28:51.804Z,101996.91
2022-10-23T09:31:19.518Z,101999.25
2022-10-23T09:33:58.022Z,102006.69
2022-10-23T09:36:25.980Z,102011.25
2022-10-23T09:38:54.100Z,102020.06
2022-10-23T09:41:22.043Z,102013.19
2022-10-23T09:44:11.426Z,102016.34
2022-10-23T09:46:46.408Z,102022.47
2022-10-23T09:49:24.380Z,102027.41
2022-10-23T09:51:56.384Z,102025.63
2022-10-23T09:54:24.290Z,102026.41
2022-10-23T09:56:51.849Z,102034.72
2022-10-23T09:59:25.620Z,102034.03
2022-10-23T10:02:00.787Z,102030.63
2022-10-23T10:04:39.483Z,102031.50
2022-10-23T10:07:18.261Z,102032.34
2022-10-23T10:09:44.921Z,102037.09
2022-10-23T10:12:29.686Z,102039.66
2022-10-23T10:15:17.407Z,102047.66
2022-10-23T10:17:56.357Z,102046.81
2022-10-23T10:20:38.151Z,102048.34
2022-10-23T10:23:31.106Z,102052.84
2022-10-23T10:26:09.774Z,102043.50
2022-10-23T10:28:52.895Z,102044.03
2022-10-23T10:31:43.716Z,102036.88
2022-10-23T10:34:14.753Z,102034.28
2022-10-23T10:36:48.970Z,102037.28
2022-10-23T10:39:35.544Z,102027.78
2022-10-23T10:42:11.127Z,102027.00
2022-10-23T10:44:54.022Z,102028.91
2022-10-23T10:47:47.746Z,102024.66
2022-10-23T10:50:22.940Z,102009.66
2022-10-23T10:53:08.887Z,102016.13
2022-10-23T10:55:41.217Z,102010.19
2022-10-23T10:58:31.968Z,102007.34
2022-10-23T11:01:00.802Z,102006.16
2022-10-23T11:03:52.468Z,102003.91
2022-10-23T11:06:21.456Z,102000.66
2022-10-23T11:08:57.521Z,101999.63
2022-10-23T11:11:36.508Z,102004.34
2022-10-23T11:14:03.437Z,102001.22
2022-10-23T11:16:36.093Z,102008.41
2022-10-23T11:19:14.049Z,102003.28
2022-10-23T11:21:44.948Z,101998.50
2022-10-23T11:24:26.656Z,101999.25
2022-10-23T11:26:53.202Z,101993.53
2022-10-23T11:29:57.808Z,101996.94
2022-10-23T11:35:12.579Z,101994.03
2022-10-23T11:37:39.074Z,101992.31
2022-10-23T11:40:08.653Z,101986.53
2022-10-23T11:42:41.716Z,101984.03
2022-10-23T11:45:36.866Z,101991.84
2022-10-23T11:48:13.546Z,101994.94
2022-10-23T11:50:49.494Z,101987.56
2022-10-23T11:53:31.124Z,101981.91
2022-10-23T11:55:57.508Z,101979.84
2022-10-23T11:58:32.266Z,101975.41
2022-10-23T12:01:18.155Z,101975.59
2022-10-23T12:03:53.031Z,101975.94
2022-10-23T12:06:31.382Z,101971.34
2022-10-23T12:09:24.855Z,101967.13
2022-10-23T12:12:09.661Z,101964.59
2022-10-23T12:14:39.831Z,101960.81
2022-10-23T12:17:36.762Z,101958.09
2022-10-23T12:20:09.036Z,101953.69
2022-10-23T12:23:14.022Z,101948.19
2022-10-23T12:25:46.960Z,101940.72
2022-10-23T12:28:31.728Z,101931.19
2022-10-23T12:31:01.426Z,101930.13
2022-10-23T12:33:35.286Z,101929.47
2022-10-23T12:36:35.015Z,101916.84
2022-10-23T12:39:02.228Z,101919.72
2022-10-23T12:41:29.897Z,101920.59
2022-10-23T12:43:59.276Z,101921.75
2022-10-23T12:46:35.125Z,101917.19
2022-10-23T12:49:04.615Z,101922.78
2022-10-23T12:51:35.283Z,101920.38
2022-10-23T12:54:02.927Z,101917.66
2022-10-23T12:56:35.657Z,101911.50
2022-10-23T12:59:02.595Z,101907.06
2022-10-23T13:01:34.220Z,101909.47
2022-10-23T13:04:26.517Z,101909.44
2022-10-23T13:06:53.312Z,101901.75
2022-10-23T13:09:36.198Z,101908.03
2022-10-23T13:12:05.144Z,101906.81
2022-10-23T13:14:40.638Z,101896.53
2022-10-23T13:17:11.682Z,101898.41
2022-10-23T13:19:38.702Z,101895.84
2022-10-23T13:22:16.652Z,101892.56
2022-10-23T13:24:43.524Z,101892.06
2022-10-23T13:27:30.970Z,101887.47
2022-10-23T13:29:57.521Z,101888.66
2022-10-23T13:32:25.802Z,101892.38
2022-10-23T13:35:04.355Z,101892.03
2022-10-23T13:37:45.676Z,101893.91
2022-10-23T13:40:27.096Z,101884.41
2022-10-23T13:42:55.427Z,101882.88
2022-10-23T13:45:24.670Z,101885.09
2022-10-23T13:47:51.194Z,101885.31
2022-10-23T13:50:18.367Z,101890.06
2022-10-23T13:52:44.963Z,101888.31
2022-10-23T13:55:23.553Z,101882.66
2022-10-23T13:57:50.060Z,101888.97
2022-10-23T14:00:17.209Z,101880.63
2022-10-23T14:02:44.271Z,101880.63
2022-10-23T14:05:10.972Z,101888.97
2022-10-23T14:07:37.492Z,101882.47
2022-10-23T14:10:04.386Z,101888.56
2022-10-23T14:12:30.947Z,101888.38
2022-10-23T14:14:57.423Z,101889.00
2022-10-23T14:17:23.893Z,101887.78
2022-10-23T14:19:50.493Z,101892.53
2022-10-23T14:22:18.025Z,101882.47
2022-10-23T14:24:44.787Z,101877.91
2022-10-23T14:27:12.248Z,101872.97
2022-10-23T14:29:40.531Z,101875.25
2022-10-23T14:32:07.054Z,101875.25
2022-10-23T14:34:33.669Z,101875.75
2022-10-23T14:37:15.419Z,101885.50
2022-10-23T14:39:44.191Z,101880.03
2022-10-23T14:42:14.407Z,101875.44
2022-10-23T14:44:40.894Z,101884.31
2022-10-23T14:47:07.451Z,101885.16
2022-10-23T14:49:35.606Z,101886.81
2022-10-23T14:52:02.267Z,101891.19
2022-10-23T14:54:29.385Z,101892.22
2022-10-23T14:56:55.847Z,101888.81
2022-10-23T14:59:22.289Z,101892.38
2022-10-23T15:01:49.140Z,101890.16
2022-10-23T15:04:15.833Z,101888.59
2022-10-23T15:06:43.246Z,101889.06
2022-10-23T15:09:10.151Z,101885.81
2022-10-23T15:11:36.672Z,101891.25
2022-10-23T15:14:03.151Z,101890.38
2022-10-23T15:16:29.696Z,101892.41
2022-10-23T15:18:56.237Z,101877.25
2022-10-23T15:21:22.840Z,101887.59
2022-10-23T15:23:49.952Z,101884.50
2022-10-23T15:26:21.801Z,101877.50
2022-10-23T15:28:53.554Z,101879.38
2022-10-23T15:31:29.168Z,101874.78
2022-10-23T15:33:59.412Z,101868.50
2022-10-23T15:36:26.450Z,101871.22
2022-10-23T15:38:52.981Z,101873.94
2022-10-23T15:41:27.708Z,101876.47
2022-10-23T15:43:54.295Z,101865.59
2022-10-23T15:46:20.788Z,101873.47
2022-10-23T15:48:47.374Z,101871.47
2022-10-23T15:51:13.847Z,101864.13
2022-10-23T15:53:40.329Z,101869.59
2022-10-23T15:56:06.876Z,101878.19
2022-10-23T15:58:33.350Z,101876.97
2022-10-23T16:01:06.416Z,101881.00
2022-10-23T16:03:34.294Z,101876.03
2022-10-23T16:06:04.399Z,101871.94
2022-10-23T16:08:30.948Z,101875.28
2022-10-23T16:10:57.463Z,101881.91
2022-10-23T16:13:23.916Z,101885.94
2022-10-23T16:15:50.593Z,101887.13
2022-10-23T16:18:18.055Z,101894.41
2022-10-23T16:20:44.561Z,101886.94
2022-10-23T16:23:11.046Z,101894.81
2022-10-23T16:25:38.287Z,101892.78
2022-10-23T16:28:05.851Z,101889.03
2022-10-23T16:30:32.420Z,101886.16
2022-10-23T16:32:58.956Z,101879.88
2022-10-23T16:35:25.467Z,101895.66
2022-10-23T16:37:52.020Z,101898.50
2022-10-23T16:40:18.602Z,101898.38
2022-10-23T16:42:45.369Z,101898.50
2022-10-23T16:45:12.214Z,101900.00
2022-10-23T16:47:38.740Z,101892.34
2022-10-23T16:50:05.608Z,101903.22
2022-10-23T16:52:33.259Z,101898.63
2022-10-23T16:54:59.759Z,101905.59
2022-10-23T16:57:29.151Z,101910.00
2022-10-23T16:59:55.806Z,101911.75
2022-10-23T17:02:22.433Z,101916.16
2022-10-23T17:04:49.044Z,101915.16
2022-10-23T17:07:15.562Z,101918.44
2022-10-23T17:09:44.893Z,101926.59
2022-10-23T17:12:11.355Z,101930.63
2022-10-23T17:14:38.748Z,101929.47
2022-10-23T17:17:06.829Z,101927.44
2022-10-23T17:19:44.602Z,101926.75
2022-10-23T17:22:13.143Z,101923.31
2022-10-23T17:24:40.118Z,101913.44
2022-10-23T17:27:06.776Z,101921.44
2022-10-23T17:29:33.544Z,101927.72
2022-10-23T17:32:00.284Z,101928.63
2022-10-23T17:34:26.821Z,101929.13
2022-10-23T17:36:54.846Z,101931.56
2022-10-23T17:39:26.012Z,101937.69
2022-10-23T17:41:53.066Z,101934.84
2022-10-23T17:44:19.941Z,101926.66
2022-10-23T17:46:52.193Z,101925.78
2022-10-23T17:49:18.667Z,101929.84
2022-10-23T17:51:45.195Z,101918.59
2022-10-23T17:54:12.347Z,101921.59
2022-10-23T17:56:40.677Z,101921.91
2022-10-23T17:59:13.870Z,101931.78
2022-10-23T18:01:40.749Z,101946.94
2022-10-23T18:04:08.079Z,101955.09
2022-10-23T18:06:40.807Z,101959.84
2022-10-23T18:09:07.895Z,101963.41
2022-10-23T18:11:37.156Z,101956.81
2022-10-23T18:14:05.241Z,101959.38
2022-10-23T18:16:31.930Z,101951.78
2022-10-23T18:19:02.075Z,101949.91
2022-10-23T18:21:29.056Z,101954.50
2022-10-23T18:23:55.687Z,101956.34
2022-10-23T18:26:24.824Z,101952.63
2022-10-23T18:28:53.648Z,101945.44
2022-10-23T18:31:20.725Z,101944.59
2022-10-23T18:33:47.615Z,101945.44
2022-10-23T18:36:25.861Z,101952.78
2022-10-23T18:38:52.771Z,101955.34
2022-10-23T18:41:20.033Z,101956.34
2022-10-23T18:43:46.651Z,101940.00
2022-10-23T18:46:14.281Z,101940.00
2022-10-23T18:48:41.393Z,101952.78
2022-10-23T18:51:17.131Z,101947.47
2022-10-23T18:53:46.697Z,101953.94
2022-10-23T18:56:22.299Z,101948.78
2022-10-23T18:58:53.860Z,101931.78
2022-10-23T19:01:20.553Z,101927.69
2022-10-23T19:03:47.334Z,101932.25
2022-10-23T19:06:14.138Z,101940.41
2022-10-23T19:08:42.552Z,101929.22
2022-10-23T19:11:10.138Z,101927.22
2022-10-23T19:13:39.149Z,101930.94
2022-10-23T19:16:12.280Z,101924.97
2022-10-23T19:18:40.979Z,101912.69
2022-10-23T19:21:07.725Z,101916.41
2022-10-23T19:23:36.448Z,101930.84
2022-10-23T19:26:09.068Z,101925.25
2022-10-23T19:28:37.841Z,101926.66
2022-10-23T19:31:04.655Z,101939.22
2022-10-23T19:33:32.541Z,101951.00
2022-10-23T19:36:02.297Z,101944.38
2022-10-23T19:38:31.931Z,101933.34
2022-10-23T19:40:58.464Z,101940.50
2022-10-23T19:43:24.979Z,101937.75
2022-10-23T19:45:51.500Z,101933.34
2022-10-23T19:48:18.145Z,101946.06
2022-10-23T19:50:44.712Z,101964.97
2022-10-23T19:53:11.245Z,101966.38
2022-10-23T19:55:37.732Z,101973.06
2022-10-23T19:58:04.254Z,101966.31
2022-10-23T20:00:30.714Z,101964.81
2022-10-23T20:02:57.200Z,101945.59
2022-10-23T20:05:23.779Z,101923.00
2022-10-23T20:07:51.348Z,101906.44
2022-10-23T20:10:17.909Z,101916.78
2022-10-23T20:12:51.502Z,101930.84
2022-10-23T20:15:26.521Z,101930.84
2022-10-23T20:17:53.590Z,101937.28
2022-10-23T20:20:20.662Z,101944.06
2022-10-23T20:22:48.495Z,101938.94
2022-10-23T20:25:16.560Z,101943.69
2022-10-23T20:27:43.022Z,101955.56
2022-10-23T20:30:10.140Z,101967.13
2022-10-23T20:32:36.662Z,101969.56
2022-10-23T20:35:03.843Z,101943.34
2022-10-23T20:37:30.468Z,101942.34
2022-10-23T20:39:57.188Z,101956.09
2022-10-23T20:42:23.669Z,101950.66
2022-10-23T20:44:50.154Z,101940.63
2022-10-23T20:47:16.890Z,101942.50
2022-10-23T20:49:43.351Z,101937.22
2022-10-23T20:52:09.793Z,101927.50
2022-10-23T20:54:38.298Z,101922.38
2022-10-23T20:57:04.783Z,101913.69
2022-10-23T20:59:31.343Z,101917.56
2022-10-23T21:01:58.093Z,101907.88
2022-10-23T21:04:27.444Z,101909.72
2022-10-23T21:07:11.546Z,101919.88
2022-10-23T21:09:39.377Z,101934.34
2022-10-23T21:12:06.670Z,101935.19
2022-10-23T21:14:33.570Z,101926.91
2022-10-23T21:17:00.102Z,101911.56
2022-10-23T21:19:26.649Z,101907.31
2022-10-23T21:21:54.213Z,101921.91
2022-10-23T21:24:20.734Z,101919.19
2022-10-23T21:26:47.515Z,101905.44
2022-10-23T21:29:18.891Z,101901.72
2022-10-23T21:31:57.654Z,101911.56
2022-10-23T21:34:25.072Z,101932.47
2022-10-23T21:39:38.476Z,101907.25
2022-10-23T21:42:05.230Z,101909.66
2022-10-23T21:44:31.707Z,101915.78
2022-10-23T21:46:58.167Z,101922.91
2022-10-23T21:49:24.636Z,101912.59
2022-10-23T21:51:51.354Z,101905.97
2022-10-23T21:54:17.824Z,101895.56
2022-10-23T21:56:46.371Z,101897.78
2022-10-23T21:59:14.805Z,101885.16
2022-10-23T22:01:43.275Z,101885.50
2022-10-23T22:04:11.395Z,101886.63
2022-10-23T22:06:38.477Z,101880.34
2022-10-23T22:09:05.925Z,101877.25
2022-10-23T22:11:32.371Z,101883.69
2022-10-23T22:13:59.277Z,101883.53
2022-10-23T22:16:25.795Z,101888.13
2022-10-23T22:18:52.445Z,101885.72
2022-10-23T22:21:23.764Z,101884.72
2022-10-23T22:23:51.067Z,101880.97
2022-10-23T22:26:32.735Z,101882.69
2022-10-23T22:29:00.105Z,101880.97
2022-10-23T22:31:29.144Z,101876.94
2022-10-23T22:33:56.679Z,101880.69
2022-10-23T22:36:23.390Z,101886.13
2022-10-23T22:38:50.122Z,101886.97
2022-10-23T22:41:17.197Z,101878.66
2022-10-23T22:43:43.694Z,101874.91
2022-10-23T22:46:11.775Z,101872.19
2022-10-23T22:48:39.287Z,101863.34
2022-10-23T22:51:08.879Z,101862.50
2022-10-23T22:53:35.806Z,101868.06
2022-10-23T22:56:06.588Z,101860.53
2022-10-23T22:58:33.092Z,101856.13
2022-10-23T23:01:14.006Z,101859.84
2022-10-23T23:03:40.639Z,101867.84
2022-10-23T23:06:08.445Z,101865.13
2022-10-23T23:08:36.320Z,101871.13
2022-10-23T23:11:03.857Z,101874.69
2022-10-23T23:13:30.403Z,101870.09
2022-10-23T23:15:57.284Z,101866.69
2022-10-23T23:18:24.559Z,101865.97
2022-10-23T23:20:51.115Z,101868.69
2022-10-23T23:23:18.120Z,101870.41
2022-10-23T23:25:49.571Z,101877.69
2022-10-23T23:28:18.345Z,101869.03
2022-10-23T23:33:12.640Z,101873.75
2022-10-23T23:35:40.700Z,101876.16
2022-10-23T23:38:07.302Z,101878.88
2022-10-23T23:40:33.882Z,101869.03
2022-10-23T23:43:00.420Z,101873.56
2022-10-23T23:45:27.107Z,101878.16
2022-10-23T23:47:53.615Z,101878.16
2022-10-23T23:50:20.546Z,101866.44
2022-10-23T23:52:47.255Z,101864.91
2022-10-23T23:55:13.820Z,101866.78
2022-10-23T23:57:40.308Z,101869.63
